Jenny Lake, Wyoming
Current Conditions -  °F | °C
As of 4:56 PM on Saturday 25 Oct 2014 (Local Time) from KDIJ Reporting Station
Clear Clear  
Wind Chill: 67°   Ceiling: Unl
Heat Index: 67°   Visibility: 10mi
Dew Point: 28°   Wind: 16mph
Humidity: 23%   Direction: 210°SSW
Pressure: 29.98"   Gusts: NA
Location:  43.8705°N, 110.836°W
Report Text: KDIJ 252256Z AUTO 21014KT 10SM CLR 19/M02 A2998 RMK AO2 T01941022 PK WND 20027/2202 SLP094
Loading
Personal Weather Stations






























Interactive Weather Map
Tropical Storm Tracking
New forecast layout! Learn more

10-Day Weather Forecast

Advertisements
Track Severe Weather on mobile